sensor_id;sensor_type;location;lat;lon;timestamp;temperature;humidity
28608;DHT22;15802;45.654;13.804;2023-03-19T00:01:42;7.90;99.90
28608;DHT22;15802;45.654;13.804;2023-03-19T00:04:08;7.90;99.90
28608;DHT22;15802;45.654;13.804;2023-03-19T00:06:33;7.90;99.90
28608;DHT22;15802;45.654;13.804;2023-03-19T00:08:59;7.90;99.90
28608;DHT22;15802;45.654;13.804;2023-03-19T00:11:25;7.80;99.90
28608;DHT22;15802;45.654;13.804;2023-03-19T00:13:50;7.90;99.90
28608;DHT22;15802;45.654;13.804;2023-03-19T00:16:16;7.90;99.90
28608;DHT22;15802;45.654;13.804;2023-03-19T00:18:42;7.90;99.90
28608;DHT22;15802;45.654;13.804;2023-03-19T00:21:08;7.90;99.90
28608;DHT22;15802;45.654;13.804;2023-03-19T00:23:33;7.80;99.90
28608;DHT22;15802;45.654;13.804;2023-03-19T00:25:59;7.80;99.90
28608;DHT22;15802;45.654;13.804;2023-03-19T00:28:25;7.80;99.90
28608;DHT22;15802;45.654;13.804;2023-03-19T00:30:51;7.80;99.90
28608;DHT22;15802;45.654;13.804;2023-03-19T00:33:17;7.80;99.90
28608;DHT22;15802;45.654;13.804;2023-03-19T00:35:42;7.80;99.90
28608;DHT22;15802;45.654;13.804;2023-03-19T00:38:08;7.80;99.90
28608;DHT22;15802;45.654;13.804;2023-03-19T00:40:34;7.70;99.90
28608;DHT22;15802;45.654;13.804;2023-03-19T00:43:01;7.70;99.90
28608;DHT22;15802;45.654;13.804;2023-03-19T00:45:27;7.70;99.90
28608;DHT22;15802;45.654;13.804;2023-03-19T00:47:55;7.60;99.90
28608;DHT22;15802;45.654;13.804;2023-03-19T00:50:21;7.60;99.90
28608;DHT22;15802;45.654;13.804;2023-03-19T00:52:47;7.60;99.90
28608;DHT22;15802;45.654;13.804;2023-03-19T00:55:12;7.70;99.90
28608;DHT22;15802;45.654;13.804;2023-03-19T00:57:38;7.70;99.90
28608;DHT22;15802;45.654;13.804;2023-03-19T01:00:04;7.70;99.90
28608;DHT22;15802;45.654;13.804;2023-03-19T01:02:30;7.80;99.90
28608;DHT22;15802;45.654;13.804;2023-03-19T01:04:56;7.70;99.90
28608;DHT22;15802;45.654;13.804;2023-03-19T01:07:22;7.70;99.90
28608;DHT22;15802;45.654;13.804;2023-03-19T01:09:47;7.60;99.90
28608;DHT22;15802;45.654;13.804;2023-03-19T01:12:13;7.60;99.90
28608;DHT22;15802;45.654;13.804;2023-03-19T01:14:39;7.60;99.90
28608;DHT22;15802;45.654;13.804;2023-03-19T01:17:05;7.60;99.90
28608;DHT22;15802;45.654;13.804;2023-03-19T01:19:31;7.60;99.90
28608;DHT22;15802;45.654;13.804;2023-03-19T01:21:56;7.60;99.90
28608;DHT22;15802;45.654;13.804;2023-03-19T01:24:22;7.60;99.90
28608;DHT22;15802;45.654;13.804;2023-03-19T01:26:48;7.60;99.90
28608;DHT22;15802;45.654;13.804;2023-03-19T01:29:13;7.60;99.90
28608;DHT22;15802;45.654;13.804;2023-03-19T01:31:39;7.50;99.90
28608;DHT22;15802;45.654;13.804;2023-03-19T01:34:05;7.60;99.90
28608;DHT22;15802;45.654;13.804;2023-03-19T01:36:31;7.50;99.90
28608;DHT22;15802;45.654;13.804;2023-03-19T01:38:57;7.50;99.90
28608;DHT22;15802;45.654;13.804;2023-03-19T01:41:23;7.50;99.90
28608;DHT22;15802;45.654;13.804;2023-03-19T01:43:49;7.40;99.90
28608;DHT22;15802;45.654;13.804;2023-03-19T01:49:03;7.40;99.90
28608;DHT22;15802;45.654;13.804;2023-03-19T01:51:31;7.40;99.90
28608;DHT22;15802;45.654;13.804;2023-03-19T01:53:59;7.40;99.90
28608;DHT22;15802;45.654;13.804;2023-03-19T01:56:28;7.50;99.90
28608;DHT22;15802;45.654;13.804;2023-03-19T01:58:58;7.50;99.90
28608;DHT22;15802;45.654;13.804;2023-03-19T02:01:25;7.50;99.90
28608;DHT22;15802;45.654;13.804;2023-03-19T02:03:52;7.40;99.90
28608;DHT22;15802;45.654;13.804;2023-03-19T02:06:19;7.50;99.90
28608;DHT22;15802;45.654;13.804;2023-03-19T02:08:45;7.50;99.90
28608;DHT22;15802;45.654;13.804;2023-03-19T02:11:12;7.40;99.90
28608;DHT22;15802;45.654;13.804;2023-03-19T02:13:38;7.40;99.90
28608;DHT22;15802;45.654;13.804;2023-03-19T02:16:03;7.40;99.90
28608;DHT22;15802;45.654;13.804;2023-03-19T02:18:29;7.30;99.90
28608;DHT22;15802;45.654;13.804;2023-03-19T02:21:00;7.30;99.90
28608;DHT22;15802;45.654;13.804;2023-03-19T02:23:32;7.30;99.90
28608;DHT22;15802;45.654;13.804;2023-03-19T02:26:01;7.40;99.90
28608;DHT22;15802;45.654;13.804;2023-03-19T02:28:27;7.30;99.90
28608;DHT22;15802;45.654;13.804;2023-03-19T02:30:54;7.30;99.90
28608;DHT22;15802;45.654;13.804;2023-03-19T02:33:20;7.30;99.90
28608;DHT22;15802;45.654;13.804;2023-03-19T02:35:46;7.30;99.90
28608;DHT22;15802;45.654;13.804;2023-03-19T02:38:13;7.40;99.90
28608;DHT22;15802;45.654;13.804;2023-03-19T02:40:43;7.40;99.90
28608;DHT22;15802;45.654;13.804;2023-03-19T02:43:09;7.40;99.90
28608;DHT22;15802;45.654;13.804;2023-03-19T02:45:35;7.40;99.90
28608;DHT22;15802;45.654;13.804;2023-03-19T02:48:02;7.30;99.90
28608;DHT22;15802;45.654;13.804;2023-03-19T02:50:28;7.40;99.90
28608;DHT22;15802;45.654;13.804;2023-03-19T02:52:53;7.40;99.90
28608;DHT22;15802;45.654;13.804;2023-03-19T02:55:19;7.40;99.90
28608;DHT22;15802;45.654;13.804;2023-03-19T02:57:45;7.40;99.90
28608;DHT22;15802;45.654;13.804;2023-03-19T03:00:11;7.40;99.90
28608;DHT22;15802;45.654;13.804;2023-03-19T03:02:37;7.40;99.90
28608;DHT22;15802;45.654;13.804;2023-03-19T03:05:04;7.40;99.90
28608;DHT22;15802;45.654;13.804;2023-03-19T03:07:31;7.40;99.90
28608;DHT22;15802;45.654;13.804;2023-03-19T03:09:57;7.30;99.90
28608;DHT22;15802;45.654;13.804;2023-03-19T03:12:23;7.30;99.90
28608;DHT22;15802;45.654;13.804;2023-03-19T03:14:48;7.30;99.90
28608;DHT22;15802;45.654;13.804;2023-03-19T03:17:14;7.30;99.90
28608;DHT22;15802;45.654;13.804;2023-03-19T03:19:40;7.30;99.90
28608;DHT22;15802;45.654;13.804;2023-03-19T03:22:06;7.20;99.90
28608;DHT22;15802;45.654;13.804;2023-03-19T03:24:32;7.30;99.90
28608;DHT22;15802;45.654;13.804;2023-03-19T03:26:58;7.30;99.90
28608;DHT22;15802;45.654;13.804;2023-03-19T03:29:23;7.20;99.90
28608;DHT22;15802;45.654;13.804;2023-03-19T03:31:49;7.30;99.90
28608;DHT22;15802;45.654;13.804;2023-03-19T03:34:16;7.20;99.90
28608;DHT22;15802;45.654;13.804;2023-03-19T03:36:41;7.20;99.90
28608;DHT22;15802;45.654;13.804;2023-03-19T03:39:07;7.30;99.90
28608;DHT22;15802;45.654;13.804;2023-03-19T03:41:33;7.30;99.90
28608;DHT22;15802;45.654;13.804;2023-03-19T03:43:58;7.20;99.90
28608;DHT22;15802;45.654;13.804;2023-03-19T03:46:24;7.20;99.90
28608;DHT22;15802;45.654;13.804;2023-03-19T03:48:50;7.20;99.90
28608;DHT22;15802;45.654;13.804;2023-03-19T03:51:16;7.20;99.90
28608;DHT22;15802;45.654;13.804;2023-03-19T03:53:42;7.20;99.90
28608;DHT22;15802;45.654;13.804;2023-03-19T03:56:07;7.10;99.90
28608;DHT22;15802;45.654;13.804;2023-03-19T03:58:33;7.20;99.90
28608;DHT22;15802;45.654;13.804;2023-03-19T04:00:59;7.10;99.90
28608;DHT22;15802;45.654;13.804;2023-03-19T04:03:25;7.10;99.90
28608;DHT22;15802;45.654;13.804;2023-03-19T04:05:51;7.00;99.90
28608;DHT22;15802;45.654;13.804;2023-03-19T04:08:17;7.00;99.90
28608;DHT22;15802;45.654;13.804;2023-03-19T04:10:42;7.00;99.90
28608;DHT22;15802;45.654;13.804;2023-03-19T04:13:09;7.00;99.90
28608;DHT22;15802;45.654;13.804;2023-03-19T04:15:35;7.00;99.90
28608;DHT22;15802;45.654;13.804;2023-03-19T04:18:01;7.00;99.90
28608;DHT22;15802;45.654;13.804;2023-03-19T04:20:27;7.00;99.90
28608;DHT22;15802;45.654;13.804;2023-03-19T04:22:53;7.00;99.90
28608;DHT22;15802;45.654;13.804;2023-03-19T04:25:19;7.00;99.90
28608;DHT22;15802;45.654;13.804;2023-03-19T04:27:44;7.00;99.90
28608;DHT22;15802;45.654;13.804;2023-03-19T04:30:13;7.10;99.90
28608;DHT22;15802;45.654;13.804;2023-03-19T04:32:39;7.00;99.90
28608;DHT22;15802;45.654;13.804;2023-03-19T04:35:05;7.00;99.90
28608;DHT22;15802;45.654;13.804;2023-03-19T04:37:31;7.00;99.90
28608;DHT22;15802;45.654;13.804;2023-03-19T04:39:56;7.00;99.90
28608;DHT22;15802;45.654;13.804;2023-03-19T04:42:22;6.90;99.90
28608;DHT22;15802;45.654;13.804;2023-03-19T04:44:49;6.90;99.90
28608;DHT22;15802;45.654;13.804;2023-03-19T04:47:14;6.80;99.90
28608;DHT22;15802;45.654;13.804;2023-03-19T04:49:40;6.90;99.90
28608;DHT22;15802;45.654;13.804;2023-03-19T04:52:06;6.90;99.90
28608;DHT22;15802;45.654;13.804;2023-03-19T04:54:32;6.90;99.90
28608;DHT22;15802;45.654;13.804;2023-03-19T04:56:58;6.90;99.90
28608;DHT22;15802;45.654;13.804;2023-03-19T04:59:23;6.90;99.90
28608;DHT22;15802;45.654;13.804;2023-03-19T05:01:49;7.00;99.90
28608;DHT22;15802;45.654;13.804;2023-03-19T05:04:15;7.00;99.90
28608;DHT22;15802;45.654;13.804;2023-03-19T05:06:42;7.00;99.90
28608;DHT22;15802;45.654;13.804;2023-03-19T05:09:07;6.90;99.90
28608;DHT22;15802;45.654;13.804;2023-03-19T05:11:33;6.90;99.90
28608;DHT22;15802;45.654;13.804;2023-03-19T05:13:59;6.90;99.90
28608;DHT22;15802;45.654;13.804;2023-03-19T05:16:25;7.00;99.90
28608;DHT22;15802;45.654;13.804;2023-03-19T05:18:51;7.00;99.90
28608;DHT22;15802;45.654;13.804;2023-03-19T05:21:16;7.00;99.90
28608;DHT22;15802;45.654;13.804;2023-03-19T05:23:42;7.10;99.90
28608;DHT22;15802;45.654;13.804;2023-03-19T05:26:08;7.10;99.90
28608;DHT22;15802;45.654;13.804;2023-03-19T05:28:34;7.20;99.90
28608;DHT22;15802;45.654;13.804;2023-03-19T05:30:59;7.30;99.90
28608;DHT22;15802;45.654;13.804;2023-03-19T05:33:25;7.40;99.90
28608;DHT22;15802;45.654;13.804;2023-03-19T05:35:51;7.40;99.90
28608;DHT22;15802;45.654;13.804;2023-03-19T05:38:17;7.50;99.90
28608;DHT22;15802;45.654;13.804;2023-03-19T05:40:43;7.50;99.90
28608;DHT22;15802;45.654;13.804;2023-03-19T05:43:09;7.60;99.90
28608;DHT22;15802;45.654;13.804;2023-03-19T05:45:35;7.60;99.90
28608;DHT22;15802;45.654;13.804;2023-03-19T05:48:01;7.60;99.90
28608;DHT22;15802;45.654;13.804;2023-03-19T05:50:27;7.70;99.90
28608;DHT22;15802;45.654;13.804;2023-03-19T05:52:53;7.70;99.90
28608;DHT22;15802;45.654;13.804;2023-03-19T05:55:19;7.80;99.90
28608;DHT22;15802;45.654;13.804;2023-03-19T05:57:45;7.80;99.90
28608;DHT22;15802;45.654;13.804;2023-03-19T06:00:11;7.80;99.90
28608;DHT22;15802;45.654;13.804;2023-03-19T06:02:37;7.90;99.90
28608;DHT22;15802;45.654;13.804;2023-03-19T06:05:03;8.00;99.90
28608;DHT22;15802;45.654;13.804;2023-03-19T06:07:29;8.00;99.90
28608;DHT22;15802;45.654;13.804;2023-03-19T06:09:55;8.00;99.90
28608;DHT22;15802;45.654;13.804;2023-03-19T06:12:20;8.10;99.90
28608;DHT22;15802;45.654;13.804;2023-03-19T06:14:46;8.20;99.90
28608;DHT22;15802;45.654;13.804;2023-03-19T06:17:12;8.30;99.90
28608;DHT22;15802;45.654;13.804;2023-03-19T06:19:38;8.30;99.90
28608;DHT22;15802;45.654;13.804;2023-03-19T06:22:03;8.40;99.90
28608;DHT22;15802;45.654;13.804;2023-03-19T06:24:29;8.40;99.90
28608;DHT22;15802;45.654;13.804;2023-03-19T06:26:55;8.50;99.90
28608;DHT22;15802;45.654;13.804;2023-03-19T06:29:21;8.50;99.90
28608;DHT22;15802;45.654;13.804;2023-03-19T06:31:46;8.60;99.90
28608;DHT22;15802;45.654;13.804;2023-03-19T06:34:12;8.70;99.90
28608;DHT22;15802;45.654;13.804;2023-03-19T06:36:38;8.80;99.90
28608;DHT22;15802;45.654;13.804;2023-03-19T06:39:03;8.80;99.90
28608;DHT22;15802;45.654;13.804;2023-03-19T06:41:29;8.90;99.90
28608;DHT22;15802;45.654;13.804;2023-03-19T06:43:55;9.00;99.90
28608;DHT22;15802;45.654;13.804;2023-03-19T06:46:21;9.00;99.90
28608;DHT22;15802;45.654;13.804;2023-03-19T06:48:47;9.10;99.90
28608;DHT22;15802;45.654;13.804;2023-03-19T06:51:13;9.20;99.90
28608;DHT22;15802;45.654;13.804;2023-03-19T06:53:38;9.20;99.90
28608;DHT22;15802;45.654;13.804;2023-03-19T06:56:04;9.30;99.90
28608;DHT22;15802;45.654;13.804;2023-03-19T06:58:30;9.30;99.90
28608;DHT22;15802;45.654;13.804;2023-03-19T07:00:56;9.40;99.90
28608;DHT22;15802;45.654;13.804;2023-03-19T07:03:22;9.50;99.90
28608;DHT22;15802;45.654;13.804;2023-03-19T07:05:49;9.50;99.90
28608;DHT22;15802;45.654;13.804;2023-03-19T07:08:16;9.60;99.90
28608;DHT22;15802;45.654;13.804;2023-03-19T07:10:42;9.70;99.90
28608;DHT22;15802;45.654;13.804;2023-03-19T07:13:07;9.80;99.90
28608;DHT22;15802;45.654;13.804;2023-03-19T07:15:33;9.90;99.90
28608;DHT22;15802;45.654;13.804;2023-03-19T07:18:00;10.00;99.90
28608;DHT22;15802;45.654;13.804;2023-03-19T07:20:26;10.10;99.90
28608;DHT22;15802;45.654;13.804;2023-03-19T07:22:52;10.20;99.90
28608;DHT22;15802;45.654;13.804;2023-03-19T07:25:17;10.40;99.90
28608;DHT22;15802;45.654;13.804;2023-03-19T07:27:43;10.50;99.90
28608;DHT22;15802;45.654;13.804;2023-03-19T07:30:09;10.70;99.90
28608;DHT22;15802;45.654;13.804;2023-03-19T07:32:36;10.80;99.90
28608;DHT22;15802;45.654;13.804;2023-03-19T07:35:03;11.00;99.90
28608;DHT22;15802;45.654;13.804;2023-03-19T07:37:30;11.10;99.90
28608;DHT22;15802;45.654;13.804;2023-03-19T07:39:55;11.20;99.90
28608;DHT22;15802;45.654;13.804;2023-03-19T07:42:21;11.40;99.90
28608;DHT22;15802;45.654;13.804;2023-03-19T07:44:47;11.60;99.90
28608;DHT22;15802;45.654;13.804;2023-03-19T07:47:12;11.80;99.90
28608;DHT22;15802;45.654;13.804;2023-03-19T07:49:40;12.00;99.90
28608;DHT22;15802;45.654;13.804;2023-03-19T07:52:06;12.10;99.90
28608;DHT22;15802;45.654;13.804;2023-03-19T07:54:32;12.20;99.90
28608;DHT22;15802;45.654;13.804;2023-03-19T07:56:57;12.30;99.90
28608;DHT22;15802;45.654;13.804;2023-03-19T07:59:23;12.40;99.90
28608;DHT22;15802;45.654;13.804;2023-03-19T08:07:03;12.50;99.90
28608;DHT22;15802;45.654;13.804;2023-03-19T08:09:29;12.50;99.90
28608;DHT22;15802;45.654;13.804;2023-03-19T08:11:55;12.50;99.90
28608;DHT22;15802;45.654;13.804;2023-03-19T08:14:20;12.50;99.90
28608;DHT22;15802;45.654;13.804;2023-03-19T08:16:47;12.50;99.90
28608;DHT22;15802;45.654;13.804;2023-03-19T08:19:13;12.60;99.90
28608;DHT22;15802;45.654;13.804;2023-03-19T08:21:38;12.70;99.90
28608;DHT22;15802;45.654;13.804;2023-03-19T08:24:04;12.80;99.90
28608;DHT22;15802;45.654;13.804;2023-03-19T08:26:31;13.00;99.90
28608;DHT22;15802;45.654;13.804;2023-03-19T08:28:57;13.00;99.90
28608;DHT22;15802;45.654;13.804;2023-03-19T08:31:23;13.20;99.90
28608;DHT22;15802;45.654;13.804;2023-03-19T08:33:49;13.20;99.90
28608;DHT22;15802;45.654;13.804;2023-03-19T08:36:15;13.30;99.90
28608;DHT22;15802;45.654;13.804;2023-03-19T08:38:41;13.20;99.90
28608;DHT22;15802;45.654;13.804;2023-03-19T08:41:07;13.30;99.90
28608;DHT22;15802;45.654;13.804;2023-03-19T08:43:34;13.30;99.90
28608;DHT22;15802;45.654;13.804;2023-03-19T08:46:01;13.20;99.90
28608;DHT22;15802;45.654;13.804;2023-03-19T08:48:27;13.20;99.90
28608;DHT22;15802;45.654;13.804;2023-03-19T08:50:53;13.10;99.90
28608;DHT22;15802;45.654;13.804;2023-03-19T08:53:19;13.10;99.90
28608;DHT22;15802;45.654;13.804;2023-03-19T08:55:49;13.20;99.90
28608;DHT22;15802;45.654;13.804;2023-03-19T08:58:15;13.20;99.90
28608;DHT22;15802;45.654;13.804;2023-03-19T09:00:41;13.20;99.90
28608;DHT22;15802;45.654;13.804;2023-03-19T09:03:07;13.20;99.90
28608;DHT22;15802;45.654;13.804;2023-03-19T09:05:32;13.20;99.90
28608;DHT22;15802;45.654;13.804;2023-03-19T09:07:58;13.20;99.90
28608;DHT22;15802;45.654;13.804;2023-03-19T09:10:24;13.20;99.90
28608;DHT22;15802;45.654;13.804;2023-03-19T09:12:49;13.20;99.90
28608;DHT22;15802;45.654;13.804;2023-03-19T09:15:15;13.30;99.90
28608;DHT22;15802;45.654;13.804;2023-03-19T09:17:41;13.20;99.90
28608;DHT22;15802;45.654;13.804;2023-03-19T09:20:07;13.30;99.90
28608;DHT22;15802;45.654;13.804;2023-03-19T09:22:33;13.40;99.90
28608;DHT22;15802;45.654;13.804;2023-03-19T09:24:59;13.50;99.90
28608;DHT22;15802;45.654;13.804;2023-03-19T09:27:24;13.60;99.90
28608;DHT22;15802;45.654;13.804;2023-03-19T09:29:50;13.80;99.90
28608;DHT22;15802;45.654;13.804;2023-03-19T09:32:17;13.90;99.90
28608;DHT22;15802;45.654;13.804;2023-03-19T09:34:42;14.00;99.90
28608;DHT22;15802;45.654;13.804;2023-03-19T09:37:08;14.20;99.90
28608;DHT22;15802;45.654;13.804;2023-03-19T09:39:36;14.30;99.90
28608;DHT22;15802;45.654;13.804;2023-03-19T09:42:05;14.50;99.90
28608;DHT22;15802;45.654;13.804;2023-03-19T09:44:35;14.50;99.90
28608;DHT22;15802;45.654;13.804;2023-03-19T09:49:48;14.60;99.90
28608;DHT22;15802;45.654;13.804;2023-03-19T09:55:02;14.50;99.90
28608;DHT22;15802;45.654;13.804;2023-03-19T09:57:29;14.50;99.90
28608;DHT22;15802;45.654;13.804;2023-03-19T09:59:57;14.50;99.90
28608;DHT22;15802;45.654;13.804;2023-03-19T10:02:27;14.60;99.90
28608;DHT22;15802;45.654;13.804;2023-03-19T10:05:00;14.60;99.90
28608;DHT22;15802;45.654;13.804;2023-03-19T10:07:35;14.60;99.90
28608;DHT22;15802;45.654;13.804;2023-03-19T10:13:02;14.70;99.90
28608;DHT22;15802;45.654;13.804;2023-03-19T10:15:31;14.70;99.90
28608;DHT22;15802;45.654;13.804;2023-03-19T10:17:59;14.70;99.90
28608;DHT22;15802;45.654;13.804;2023-03-19T10:20:35;14.70;99.90
28608;DHT22;15802;45.654;13.804;2023-03-19T10:25:53;14.80;99.90
28608;DHT22;15802;45.654;13.804;2023-03-19T10:28:19;14.80;99.90
28608;DHT22;15802;45.654;13.804;2023-03-19T10:30:52;14.80;99.90
28608;DHT22;15802;45.654;13.804;2023-03-19T10:33:22;14.90;99.90
28608;DHT22;15802;45.654;13.804;2023-03-19T10:35:50;14.90;99.90
28608;DHT22;15802;45.654;13.804;2023-03-19T10:38:20;14.80;99.90
28608;DHT22;15802;45.654;13.804;2023-03-19T10:43:31;14.70;99.90
28608;DHT22;15802;45.654;13.804;2023-03-19T10:45:56;14.70;99.90
28608;DHT22;15802;45.654;13.804;2023-03-19T10:48:24;14.70;99.90
28608;DHT22;15802;45.654;13.804;2023-03-19T10:51:05;14.70;99.90
28608;DHT22;15802;45.654;13.804;2023-03-19T10:53:33;14.70;99.90
28608;DHT22;15802;45.654;13.804;2023-03-19T10:56:22;14.60;99.90
28608;DHT22;15802;45.654;13.804;2023-03-19T10:59:05;14.60;99.90
28608;DHT22;15802;45.654;13.804;2023-03-19T11:01:33;14.60;99.90
28608;DHT22;15802;45.654;13.804;2023-03-19T11:04:00;14.60;99.90
28608;DHT22;15802;45.654;13.804;2023-03-19T11:06:30;14.70;99.90
28608;DHT22;15802;45.654;13.804;2023-03-19T11:08:57;14.70;99.90
28608;DHT22;15802;45.654;13.804;2023-03-19T11:11:26;14.70;99.90
28608;DHT22;15802;45.654;13.804;2023-03-19T11:13:57;14.70;99.90
28608;DHT22;15802;45.654;13.804;2023-03-19T11:16:22;14.70;99.90
28608;DHT22;15802;45.654;13.804;2023-03-19T11:18:48;14.80;99.90
28608;DHT22;15802;45.654;13.804;2023-03-19T11:21:22;14.90;99.90
28608;DHT22;15802;45.654;13.804;2023-03-19T11:23:51;14.90;99.90
28608;DHT22;15802;45.654;13.804;2023-03-19T11:26:18;14.90;99.90
28608;DHT22;15802;45.654;13.804;2023-03-19T11:28:49;14.90;99.90
28608;DHT22;15802;45.654;13.804;2023-03-19T11:34:04;15.00;99.90
28608;DHT22;15802;45.654;13.804;2023-03-19T11:39:20;14.90;99.90
28608;DHT22;15802;45.654;13.804;2023-03-19T11:42:10;14.70;99.90
28608;DHT22;15802;45.654;13.804;2023-03-19T11:47:44;14.90;99.90
28608;DHT22;15802;45.654;13.804;2023-03-19T11:50:19;15.10;99.90
28608;DHT22;15802;45.654;13.804;2023-03-19T11:52:57;15.30;99.90
28608;DHT22;15802;45.654;13.804;2023-03-19T11:55:24;15.30;99.90
28608;DHT22;15802;45.654;13.804;2023-03-19T12:00:52;15.40;99.90
28608;DHT22;15802;45.654;13.804;2023-03-19T12:03:27;15.40;99.90
28608;DHT22;15802;45.654;13.804;2023-03-19T12:05:58;15.40;99.90
28608;DHT22;15802;45.654;13.804;2023-03-19T12:08:29;15.40;99.90
28608;DHT22;15802;45.654;13.804;2023-03-19T12:11:04;15.60;99.90
28608;DHT22;15802;45.654;13.804;2023-03-19T12:13:50;15.70;99.90
28608;DHT22;15802;45.654;13.804;2023-03-19T12:16:26;15.40;99.90
28608;DHT22;15802;45.654;13.804;2023-03-19T12:19:05;15.20;99.90
28608;DHT22;15802;45.654;13.804;2023-03-19T12:21:55;15.20;99.90
28608;DHT22;15802;45.654;13.804;2023-03-19T12:24:30;15.20;99.90
28608;DHT22;15802;45.654;13.804;2023-03-19T12:27:05;15.40;99.90
28608;DHT22;15802;45.654;13.804;2023-03-19T12:29:54;15.50;99.90
28608;DHT22;15802;45.654;13.804;2023-03-19T12:35:13;15.50;99.90
28608;DHT22;15802;45.654;13.804;2023-03-19T12:37:45;15.50;99.90
28608;DHT22;15802;45.654;13.804;2023-03-19T12:40:21;15.50;99.90
28608;DHT22;15802;45.654;13.804;2023-03-19T12:42:50;15.50;99.90
28608;DHT22;15802;45.654;13.804;2023-03-19T12:45:22;15.50;99.90
28608;DHT22;15802;45.654;13.804;2023-03-19T12:47:52;15.60;99.90
28608;DHT22;15802;45.654;13.804;2023-03-19T12:50:21;15.60;99.90
28608;DHT22;15802;45.654;13.804;2023-03-19T12:52:49;15.70;99.90
28608;DHT22;15802;45.654;13.804;2023-03-19T12:57:53;15.60;99.90
28608;DHT22;15802;45.654;13.804;2023-03-19T13:00:30;15.50;99.90
28608;DHT22;15802;45.654;13.804;2023-03-19T13:03:03;15.50;99.90
28608;DHT22;15802;45.654;13.804;2023-03-19T13:05:35;15.60;99.90
28608;DHT22;15802;45.654;13.804;2023-03-19T13:08:21;15.60;99.90
28608;DHT22;15802;45.654;13.804;2023-03-19T13:10:49;15.60;99.90
28608;DHT22;15802;45.654;13.804;2023-03-19T13:16:05;16.00;99.90
28608;DHT22;15802;45.654;13.804;2023-03-19T13:18:39;16.10;99.90
28608;DHT22;15802;45.654;13.804;2023-03-19T13:21:22;16.10;99.90
28608;DHT22;15802;45.654;13.804;2023-03-19T13:23:50;16.20;99.90
28608;DHT22;15802;45.654;13.804;2023-03-19T13:26:21;16.00;99.90
28608;DHT22;15802;45.654;13.804;2023-03-19T13:31:32;16.20;99.90
28608;DHT22;15802;45.654;13.804;2023-03-19T13:34:07;16.30;99.90
28608;DHT22;15802;45.654;13.804;2023-03-19T13:36:46;16.60;99.90
28608;DHT22;15802;45.654;13.804;2023-03-19T13:39:17;16.50;99.90
28608;DHT22;15802;45.654;13.804;2023-03-19T13:44:33;16.50;99.90
28608;DHT22;15802;45.654;13.804;2023-03-19T13:47:06;16.50;99.90
28608;DHT22;15802;45.654;13.804;2023-03-19T13:50:00;16.50;99.90
28608;DHT22;15802;45.654;13.804;2023-03-19T13:55:29;16.10;99.90
28608;DHT22;15802;45.654;13.804;2023-03-19T13:58:13;16.00;99.90
28608;DHT22;15802;45.654;13.804;2023-03-19T14:00:55;16.00;99.90
28608;DHT22;15802;45.654;13.804;2023-03-19T14:03:24;16.00;99.90
28608;DHT22;15802;45.654;13.804;2023-03-19T14:05:51;16.00;99.90
28608;DHT22;15802;45.654;13.804;2023-03-19T14:08:20;16.00;99.90
28608;DHT22;15802;45.654;13.804;2023-03-19T14:10:47;15.90;99.90
28608;DHT22;15802;45.654;13.804;2023-03-19T14:13:17;15.80;99.90
28608;DHT22;15802;45.654;13.804;2023-03-19T14:15:47;15.70;99.90
28608;DHT22;15802;45.654;13.804;2023-03-19T14:18:15;15.60;99.90
28608;DHT22;15802;45.654;13.804;2023-03-19T14:20:44;15.50;99.90
28608;DHT22;15802;45.654;13.804;2023-03-19T14:23:18;15.50;99.90
28608;DHT22;15802;45.654;13.804;2023-03-19T14:25:58;15.50;99.90
28608;DHT22;15802;45.654;13.804;2023-03-19T14:31:17;15.30;99.90
28608;DHT22;15802;45.654;13.804;2023-03-19T14:33:45;15.30;99.90
28608;DHT22;15802;45.654;13.804;2023-03-19T14:36:14;15.30;99.90
28608;DHT22;15802;45.654;13.804;2023-03-19T14:38:45;15.20;99.90
28608;DHT22;15802;45.654;13.804;2023-03-19T14:41:13;15.00;99.90
28608;DHT22;15802;45.654;13.804;2023-03-19T14:43:51;15.00;99.90
28608;DHT22;15802;45.654;13.804;2023-03-19T14:46:22;14.90;99.90
28608;DHT22;15802;45.654;13.804;2023-03-19T14:54:24;14.90;99.90
28608;DHT22;15802;45.654;13.804;2023-03-19T14:56:54;14.80;99.90
28608;DHT22;15802;45.654;13.804;2023-03-19T14:59:20;14.70;99.90
28608;DHT22;15802;45.654;13.804;2023-03-19T15:01:48;14.60;99.90
28608;DHT22;15802;45.654;13.804;2023-03-19T15:04:16;14.70;99.90
28608;DHT22;15802;45.654;13.804;2023-03-19T15:06:43;14.70;99.90
28608;DHT22;15802;45.654;13.804;2023-03-19T15:09:16;14.90;99.90
28608;DHT22;15802;45.654;13.804;2023-03-19T15:11:49;14.90;99.90
28608;DHT22;15802;45.654;13.804;2023-03-19T15:14:24;14.80;99.90
28608;DHT22;15802;45.654;13.804;2023-03-19T15:16:58;14.80;99.90
28608;DHT22;15802;45.654;13.804;2023-03-19T15:19:26;14.70;99.90
28608;DHT22;15802;45.654;13.804;2023-03-19T15:22:10;14.70;99.90
28608;DHT22;15802;45.654;13.804;2023-03-19T15:24:36;14.70;99.90
28608;DHT22;15802;45.654;13.804;2023-03-19T15:27:14;14.60;99.90
28608;DHT22;15802;45.654;13.804;2023-03-19T15:29:40;14.60;99.90
28608;DHT22;15802;45.654;13.804;2023-03-19T15:32:05;14.60;99.90
28608;DHT22;15802;45.654;13.804;2023-03-19T15:34:31;14.50;99.90
28608;DHT22;15802;45.654;13.804;2023-03-19T15:36:59;14.60;99.90
28608;DHT22;15802;45.654;13.804;2023-03-19T15:39:27;14.70;99.90
28608;DHT22;15802;45.654;13.804;2023-03-19T15:41:54;14.70;99.90
28608;DHT22;15802;45.654;13.804;2023-03-19T15:44:30;14.70;99.90
28608;DHT22;15802;45.654;13.804;2023-03-19T15:46:57;14.70;99.90
28608;DHT22;15802;45.654;13.804;2023-03-19T15:49:27;14.70;99.90
28608;DHT22;15802;45.654;13.804;2023-03-19T15:51:55;14.70;99.90
28608;DHT22;15802;45.654;13.804;2023-03-19T15:54:22;14.70;99.90
28608;DHT22;15802;45.654;13.804;2023-03-19T15:56:49;14.70;99.90
28608;DHT22;15802;45.654;13.804;2023-03-19T15:59:16;14.60;99.90
28608;DHT22;15802;45.654;13.804;2023-03-19T16:01:42;14.50;99.90
28608;DHT22;15802;45.654;13.804;2023-03-19T16:04:12;14.40;99.90
28608;DHT22;15802;45.654;13.804;2023-03-19T16:06:40;14.40;99.90
28608;DHT22;15802;45.654;13.804;2023-03-19T16:11:51;14.30;99.90
28608;DHT22;15802;45.654;13.804;2023-03-19T16:14:22;14.40;99.90
28608;DHT22;15802;45.654;13.804;2023-03-19T16:16:49;14.40;99.90
28608;DHT22;15802;45.654;13.804;2023-03-19T16:19:32;14.40;99.90
28608;DHT22;15802;45.654;13.804;2023-03-19T16:21:58;14.30;99.90
28608;DHT22;15802;45.654;13.804;2023-03-19T16:24:33;14.30;99.90
28608;DHT22;15802;45.654;13.804;2023-03-19T16:27:03;14.20;99.90
28608;DHT22;15802;45.654;13.804;2023-03-19T16:29:33;14.10;99.90